NTAAYPDN

Guest
Details From NTAA - Faaa
To YPDN - Darwin Intl
Flight Number -
Tags Generated
Created
Modified
Stats Distance 4,591 nm / 8,503 km
Max Altitude 0 ft / 0 m
Waypoints 5
Social Downloads 3
Likes 0
Share VATSIM

Download

Looking for another format? Having issues loading an existing format? Contact us
Advertisement - Login to hide

Notes

Generated

Route

NTAA WJLEI PMPSI DN YPDN

ID Type Via Altitude Latitude Longitude Leg Dist Tot Dist Heading (true) Name
O NTAA APT - 0 ft / 0 m -17.56288˚ -149.62043˚ - 0 nm - -
WJLEI FIX - 0 ft / 0 m -15.85310˚ 145.45336˚ 3717 nm 3717 nm 261° / 282° -
PMPSI FIX - 0 ft / 0 m -15.06501˚ 141.70709˚ 221 nm 3939 nm 282° / 283° -
DN NDB - 0 ft / 0 m -12.43139˚ 130.96139˚ 646 nm 4585 nm 283° / 285° DARWIN NDB
O YPDN APT - 0 ft / 0 m -12.40889˚ 130.87067˚ 5 nm 4591 nm 284° / 284° -

Altitude Profile

Advertisement - Login to hide

Weather


0- 5 10 15 20 25 30 35+ Temperature / ° C

Clouds and Precipitation
Forecast for 2018-05-20 12:00 UTC. Updated 2 hours ago

Ground ~20,000 ft ~40,000 ft Winds

NTAA

Details ICAO NTAA (PPT)
Name Faaa
Region French Polynesia
Timezone Pacific/Tahiti (UTC-10.0)
Stats Elevation 5 ft / 2 m (AMSL)
Location -17.553765° -149.607255°
Runways 1
Magnetic Variation 12.876° E

METAR

NTAA 201230Z 13002KT 9999 FEW020 BKN043 25/21 Q1014 NOSIG

Decode

TAF

TAF NTAA 201100Z 2012/2118 VRB05KT 9999 FEW020 SCT300 BECMG 2013/2016 SCT016 SCT050 BKN300 BECMG 2102/2104 FEW025

Decode

Departure Runways

ID Width Length Bearing (true) Bearing (mag) Surface Threshold Offset Overrun Length
04 148 ft / 45 m 11,323 ft / 3,451 m 54.04° 41.16° Asphalt 1,099 ft / 335 m 0 ft / 0 m
22 148 ft / 45 m 11,323 ft / 3,451 m 234.03° 221.15° Asphalt 479 ft / 146 m 0 ft / 0 m

YPDN

Details ICAO YPDN (DRW)
Name Darwin Intl
Region Australia
Timezone Australia/Darwin (UTC+9.5)
Stats Elevation 102 ft / 31 m (AMSL)
Location -12.415064° 130.875278°
Runways 2
Magnetic Variation 2.632° E

METAR

YPDN 201230Z 16004KT CAVOK 25/18 Q1013

Decode

TAF

TAF YPDN 201105Z 2012/2118 17005KT CAVOK FM201600 12006KT CAVOK FM210000 11014KT CAVOK FM210600 10008KT CAVOK PROB30 2012/2015 5000 FU NSC

Decode

Destination Runways

ID Width Length Bearing (true) Bearing (mag) Surface Threshold Offset Overrun Length
11 197 ft / 60 m 10,997 ft / 3,352 m 109.02° 106.39° Asphalt 0 ft / 0 m 0 ft / 0 m
18 98 ft / 30 m 5,029 ft / 1,533 m 179.85° 177.22° Asphalt 0 ft / 0 m 0 ft / 0 m
29 197 ft / 60 m 10,997 ft / 3,352 m 289.02° 286.39° Asphalt 0 ft / 0 m 0 ft / 0 m
36 98 ft / 30 m 5,029 ft / 1,533 m 359.85° 357.22° Asphalt 0 ft / 0 m 0 ft / 0 m

Approach Navaids

Runway Type Ident Frequency Range Bearing (true) Bearing (mag) Slope Elevation
29 Localiser IDN 109.70 MHz 18 nm / 33 km 289.00° 286.37° - 103 ft / 31 m (AMSL)
29 Glidescope IDN 109.70 MHz 10 nm / 19 km 289.02° 286.39° 3.00° 103 ft / 31 m (AMSL)